KOLS

Nogales International Airport

Nogales, Arizona, USA
METAR KOLS 211354Z AUTO 00000KT 10SM CLR 18/M02 A2994 RMK AO2 SLP075 T01781022
Observed Flight Rules
May-21 @ 13:54 UTC (58 minutes ago) Visual Flight Rules
Visibility Clouds
10 miles
  • Clear skies
Temperatures Readings
Current 18°C / 64°F
Dewpoint -2°C / 28°F
Humidity 26%
Altimeter 29.94" Hg
Pressure 1007.5 hPa
Elevation 1184
METAR KOLS 211354Z AUTO 00000KT 10SM CLR 18/M02 A2994 RMK AO2 SLP075 T01781022
Observed Flight Rules
May-21 @ 13:54 UTC
(58 minutes ago)
VFR
Clouds
  • Clear skies
Temperature Dewpoint
18°C / 64°F -2°C / 28°F
Humidity Altimeter Pressure
26% 29.94" Hg 1007.5 hPa